Hauptseite
METAR-TAF:

METAR-TAF

Flughäfen :

Flughafen Jersey

Jersey,

Breite: 49-13N, Länge: 002-12W, Höhe: 84 m

Beobachtung

Neuester Wetterbericht von vor 33 Minuten, um 11:50 UTC
Wind 8 kt aus Nordost, variierte zwischen Nord und Ost
Temperatur 24°C
Luftfeuchtigkeit 38%
Luftdruck 1034 hPa
Sichtweite 10 km oder mehr
keine Wolken unter 1500 m und keine Kumulonimbus oder Gewitterwolken

METAR: EGJJ 271150Z 05008KT 010V100 CAVOK 24/09 Q1034

Zeit: 13:23 (12:23 UTC)

Prognose

Neuester Wetterbericht von vor 1 Stunde und 21 Minuten, um 11:02 UTC
Gültige Prognose vom 27 um 12 UTC bis 27 um 21 UTC
Wind 9 kt aus Ost/Nordost
Sichtweite 10 km oder mehr
keine Wolken unter 1500 m und keine Kumulonimbus oder Gewitterwolken

TAF: EGJJ 271102Z 2712/2721 06009KT CAVOK

Wetterbeobachtungen und Prognosen von mehr als 4000 Flughäfen (METAR und TAF Bericht).

Die verfügbaren Stationen werden durch gelbe und rote Markierungen auf der Karte dargestellt.

Führen Sie die Maus auf sie, um den Namen der Station zu sehen.

Darauf klicken, um die Beobachtung von Wetterbeobachtungen und Prognosen zu sehen.

Um die Karte zu ändern : klicken Sie auf den grünen Tasten mit einem schwarzen Kreuz Zum Vergrößern, auf den grünen Button mit einem Gedankenstrich zu verkleinern, oder auf die grünen Pfeile für benachbarte Karten.


METAR-TAF: